sensor_id;sensor_type;location;lat;lon;timestamp;pressure;altitude;pressure_sealevel;temperature;humidity
66762;BME280;53672;48.176;16.338;2022-08-05T00:03:23;98957.59;;;24.72;45.87
66762;BME280;53672;48.176;16.338;2022-08-05T00:08:23;98953.19;;;24.67;46.02
66762;BME280;53672;48.176;16.338;2022-08-05T00:13:25;98950.81;;;24.66;45.90
66762;BME280;53672;48.176;16.338;2022-08-05T00:18:26;98944.09;;;24.63;46.16
66762;BME280;53672;48.176;16.338;2022-08-05T00:23:26;98942.84;;;24.57;47.31
66762;BME280;53672;48.176;16.338;2022-08-05T00:28:28;98949.44;;;24.49;48.43
66762;BME280;53672;48.176;16.338;2022-08-05T00:33:29;98931.22;;;24.38;48.87
66762;BME280;53672;48.176;16.338;2022-08-05T00:38:29;98931.47;;;24.26;49.63
66762;BME280;53672;48.176;16.338;2022-08-05T00:43:32;98927.47;;;24.19;50.00
66762;BME280;53672;48.176;16.338;2022-08-05T00:48:32;98930.13;;;24.12;50.02
66762;BME280;53672;48.176;16.338;2022-08-05T00:53:33;98910.63;;;23.98;50.78
66762;BME280;53672;48.176;16.338;2022-08-05T00:58:35;98913.97;;;23.81;51.27
66762;BME280;53672;48.176;16.338;2022-08-05T01:03:35;98916.19;;;23.72;51.30
66762;BME280;53672;48.176;16.338;2022-08-05T01:08:36;98916.09;;;23.65;51.84
66762;BME280;53672;48.176;16.338;2022-08-05T01:13:46;98907.00;;;23.61;52.12
66762;BME280;53672;48.176;16.338;2022-08-05T01:18:51;98905.75;;;23.55;52.38
66762;BME280;53672;48.176;16.338;2022-08-05T01:24:00;98900.81;;;23.41;52.76
66762;BME280;53672;48.176;16.338;2022-08-05T01:29:06;98897.94;;;23.34;52.97
66762;BME280;53672;48.176;16.338;2022-08-05T01:34:12;98899.84;;;23.30;53.75
66762;BME280;53672;48.176;16.338;2022-08-05T01:39:15;98895.81;;;23.24;53.48
66762;BME280;53672;48.176;16.338;2022-08-05T01:44:18;98897.38;;;23.21;54.11
66762;BME280;53672;48.176;16.338;2022-08-05T01:49:21;98892.59;;;23.18;54.46
66762;BME280;53672;48.176;16.338;2022-08-05T01:54:25;98890.09;;;23.10;54.04
66762;BME280;53672;48.176;16.338;2022-08-05T01:59:31;98887.25;;;23.03;54.22
66762;BME280;53672;48.176;16.338;2022-08-05T02:04:35;98891.47;;;22.97;54.18
66762;BME280;53672;48.176;16.338;2022-08-05T02:09:36;98882.31;;;22.89;54.72
66762;BME280;53672;48.176;16.338;2022-08-05T02:14:42;98881.38;;;22.82;54.67
66762;BME280;53672;48.176;16.338;2022-08-05T02:19:47;98874.25;;;22.77;54.98
66762;BME280;53672;48.176;16.338;2022-08-05T02:24:52;98883.59;;;22.72;55.07
66762;BME280;53672;48.176;16.338;2022-08-05T02:29:57;98880.78;;;22.69;54.04
66762;BME280;53672;48.176;16.338;2022-08-05T02:35:02;98878.91;;;22.73;53.47
66762;BME280;53672;48.176;16.338;2022-08-05T02:40:06;98879.31;;;22.75;53.19
66762;BME280;53672;48.176;16.338;2022-08-05T02:45:10;98877.84;;;22.81;53.04
66762;BME280;53672;48.176;16.338;2022-08-05T02:50:11;98871.63;;;22.84;52.53
66762;BME280;53672;48.176;16.338;2022-08-05T02:55:14;98864.59;;;22.87;51.91
66762;BME280;53672;48.176;16.338;2022-08-05T03:00:16;98862.22;;;22.85;51.46
66762;BME280;53672;48.176;16.338;2022-08-05T03:05:17;98864.53;;;22.83;51.47
66762;BME280;53672;48.176;16.338;2022-08-05T03:10:18;98855.03;;;22.77;51.11
66762;BME280;53672;48.176;16.338;2022-08-05T03:15:20;98855.03;;;22.77;51.02
66762;BME280;53672;48.176;16.338;2022-08-05T03:20:21;98855.72;;;22.74;50.85
66762;BME280;53672;48.176;16.338;2022-08-05T03:25:21;98859.59;;;22.69;50.72
66762;BME280;53672;48.176;16.338;2022-08-05T03:30:24;98854.75;;;22.63;50.96
66762;BME280;53672;48.176;16.338;2022-08-05T03:35:25;98847.53;;;22.55;51.06
66762;BME280;53672;48.176;16.338;2022-08-05T03:40:26;98867.91;;;22.54;51.95
66762;BME280;53672;48.176;16.338;2022-08-05T03:45:28;98865.50;;;22.49;52.83
66762;BME280;53672;48.176;16.338;2022-08-05T03:50:34;98871.66;;;22.42;53.51
66762;BME280;53672;48.176;16.338;2022-08-05T03:55:45;98867.69;;;22.40;53.62
66762;BME280;53672;48.176;16.338;2022-08-05T04:00:51;98872.25;;;22.32;52.82
66762;BME280;53672;48.176;16.338;2022-08-05T04:05:53;98869.13;;;22.34;53.41
66762;BME280;53672;48.176;16.338;2022-08-05T04:10:55;98865.22;;;22.35;52.97
66762;BME280;53672;48.176;16.338;2022-08-05T04:15:56;98865.66;;;22.37;53.38
66762;BME280;53672;48.176;16.338;2022-08-05T04:20:57;98865.22;;;22.35;53.24
66762;BME280;53672;48.176;16.338;2022-08-05T04:25:57;98866.44;;;22.37;52.56
66762;BME280;53672;48.176;16.338;2022-08-05T04:31:00;98864.56;;;22.41;52.53
66762;BME280;53672;48.176;16.338;2022-08-05T04:36:00;98863.09;;;22.47;52.41
66762;BME280;53672;48.176;16.338;2022-08-05T04:41:01;98862.41;;;22.54;52.63
66762;BME280;53672;48.176;16.338;2022-08-05T04:46:03;98861.69;;;22.57;52.23
66762;BME280;53672;48.176;16.338;2022-08-05T04:51:03;98866.16;;;22.65;51.97
66762;BME280;53672;48.176;16.338;2022-08-05T04:56:05;98858.13;;;22.76;51.91
66762;BME280;53672;48.176;16.338;2022-08-05T05:01:07;98859.47;;;22.85;51.57
66762;BME280;53672;48.176;16.338;2022-08-05T05:06:08;98862.03;;;22.97;51.75
66762;BME280;53672;48.176;16.338;2022-08-05T05:11:09;98857.50;;;23.12;51.32
66762;BME280;53672;48.176;16.338;2022-08-05T05:16:11;98858.88;;;23.21;51.25
66762;BME280;53672;48.176;16.338;2022-08-05T05:21:11;98855.94;;;23.37;50.92
66762;BME280;53672;48.176;16.338;2022-08-05T05:26:12;98864.00;;;23.49;50.50
66762;BME280;53672;48.176;16.338;2022-08-05T05:31:13;98868.72;;;23.49;50.53
66762;BME280;53672;48.176;16.338;2022-08-05T05:36:14;98862.47;;;23.52;50.60
66762;BME280;53672;48.176;16.338;2022-08-05T05:41:14;98868.94;;;23.66;50.30
66762;BME280;53672;48.176;16.338;2022-08-05T05:46:16;98857.34;;;23.84;49.73
66762;BME280;53672;48.176;16.338;2022-08-05T05:51:18;98862.94;;;23.91;49.62
66762;BME280;53672;48.176;16.338;2022-08-05T05:56:18;98866.34;;;24.10;49.64
66762;BME280;53672;48.176;16.338;2022-08-05T06:01:20;98864.25;;;24.34;48.98
66762;BME280;53672;48.176;16.338;2022-08-05T06:06:21;98869.69;;;24.67;48.54
66762;BME280;53672;48.176;16.338;2022-08-05T06:11:21;98871.91;;;24.91;48.85
66762;BME280;53672;48.176;16.338;2022-08-05T06:16:23;98875.66;;;25.16;47.69
66762;BME280;53672;48.176;16.338;2022-08-05T06:21:23;98879.34;;;25.42;47.37
66762;BME280;53672;48.176;16.338;2022-08-05T06:26:24;98879.16;;;25.64;47.21
66762;BME280;53672;48.176;16.338;2022-08-05T06:31:26;98877.28;;;25.93;46.85
66762;BME280;53672;48.176;16.338;2022-08-05T06:36:26;98884.50;;;26.15;46.00
66762;BME280;53672;48.176;16.338;2022-08-05T06:41:27;98889.75;;;26.49;45.38
66762;BME280;53672;48.176;16.338;2022-08-05T06:46:28;98886.22;;;26.66;44.85
66762;BME280;53672;48.176;16.338;2022-08-05T06:51:29;98885.09;;;26.88;43.86
66762;BME280;53672;48.176;16.338;2022-08-05T06:56:31;98876.75;;;27.16;43.93
66762;BME280;53672;48.176;16.338;2022-08-05T07:01:33;98879.13;;;27.50;42.76
66762;BME280;53672;48.176;16.338;2022-08-05T07:06:34;98874.28;;;27.82;42.06
66762;BME280;53672;48.176;16.338;2022-08-05T07:11:34;98873.03;;;28.08;41.31
66762;BME280;53672;48.176;16.338;2022-08-05T07:16:36;98883.66;;;28.16;40.98
66762;BME280;53672;48.176;16.338;2022-08-05T07:21:37;98876.75;;;28.49;42.45
66762;BME280;53672;48.176;16.338;2022-08-05T07:26:37;98875.72;;;28.84;39.90
66762;BME280;53672;48.176;16.338;2022-08-05T07:31:40;98880.66;;;29.10;39.57
66762;BME280;53672;48.176;16.338;2022-08-05T07:36:40;98881.00;;;29.16;39.92
66762;BME280;53672;48.176;16.338;2022-08-05T07:41:41;98882.84;;;29.33;38.76
66762;BME280;53672;48.176;16.338;2022-08-05T07:46:43;98879.03;;;29.57;38.74
66762;BME280;53672;48.176;16.338;2022-08-05T07:51:43;98874.44;;;29.78;38.01
66762;BME280;53672;48.176;16.338;2022-08-05T07:56:43;98876.81;;;30.13;37.75
66762;BME280;53672;48.176;16.338;2022-08-05T08:01:45;98880.94;;;30.32;37.04
66762;BME280;53672;48.176;16.338;2022-08-05T08:06:46;98884.69;;;30.48;36.34
66762;BME280;53672;48.176;16.338;2022-08-05T08:11:46;98881.25;;;30.67;35.97
66762;BME280;53672;48.176;16.338;2022-08-05T08:16:48;98879.53;;;31.00;35.24
66762;BME280;53672;48.176;16.338;2022-08-05T08:21:49;98886.69;;;31.25;35.01
66762;BME280;53672;48.176;16.338;2022-08-05T08:26:49;98878.78;;;31.66;34.31
66762;BME280;53672;48.176;16.338;2022-08-05T08:31:51;98876.72;;;31.90;33.85
66762;BME280;53672;48.176;16.338;2022-08-05T08:36:52;98880.41;;;32.03;33.97
66762;BME280;53672;48.176;16.338;2022-08-05T08:41:53;98874.78;;;32.26;33.60
66762;BME280;53672;48.176;16.338;2022-08-05T08:46:55;98870.06;;;32.91;32.11
66762;BME280;53672;48.176;16.338;2022-08-05T08:51:58;98866.19;;;33.21;31.94
66762;BME280;53672;48.176;16.338;2022-08-05T08:57:00;98872.84;;;33.56;31.08
66762;BME280;53672;48.176;16.338;2022-08-05T09:02:04;98862.53;;;33.53;31.24
66762;BME280;53672;48.176;16.338;2022-08-05T09:07:05;98864.72;;;33.61;30.96
66762;BME280;53672;48.176;16.338;2022-08-05T09:12:07;98862.50;;;33.69;31.16
66762;BME280;53672;48.176;16.338;2022-08-05T09:17:10;98869.00;;;34.07;30.40
66762;BME280;53672;48.176;16.338;2022-08-05T09:22:11;98868.63;;;34.34;29.99
66762;BME280;53672;48.176;16.338;2022-08-05T09:27:29;98872.22;;;34.73;29.15
66762;BME280;53672;48.176;16.338;2022-08-05T09:32:36;98868.50;;;34.50;29.66
66762;BME280;53672;48.176;16.338;2022-08-05T09:37:36;98861.13;;;34.82;28.89
66762;BME280;53672;48.176;16.338;2022-08-05T09:42:38;98865.09;;;35.19;28.74
66762;BME280;53672;48.176;16.338;2022-08-05T09:47:40;98859.66;;;35.93;28.43
66762;BME280;53672;48.176;16.338;2022-08-05T09:52:41;98861.50;;;36.61;28.73
66762;BME280;53672;48.176;16.338;2022-08-05T09:57:44;98853.41;;;37.57;25.89
66762;BME280;53672;48.176;16.338;2022-08-05T10:02:47;98855.66;;;38.32;25.67
66762;BME280;53672;48.176;16.338;2022-08-05T10:07:51;98853.06;;;39.18;23.87
66762;BME280;53672;48.176;16.338;2022-08-05T10:12:53;98845.38;;;39.95;22.44
66762;BME280;53672;48.176;16.338;2022-08-05T10:18:13;98844.59;;;39.56;22.82
66762;BME280;53672;48.176;16.338;2022-08-05T10:23:17;98838.31;;;39.61;22.68
66762;BME280;53672;48.176;16.338;2022-08-05T10:28:18;98833.38;;;39.32;23.06
66762;BME280;53672;48.176;16.338;2022-08-05T10:33:21;98832.53;;;40.38;21.79
66762;BME280;53672;48.176;16.338;2022-08-05T10:38:24;98826.38;;;40.25;21.71
66762;BME280;53672;48.176;16.338;2022-08-05T10:43:34;98825.91;;;40.26;21.86
66762;BME280;53672;48.176;16.338;2022-08-05T10:48:38;98816.34;;;40.73;21.53
66762;BME280;53672;48.176;16.338;2022-08-05T10:53:42;98818.78;;;40.01;22.38
66762;BME280;53672;48.176;16.338;2022-08-05T10:59:00;98810.06;;;40.84;21.54
66762;BME280;53672;48.176;16.338;2022-08-05T11:04:05;98810.41;;;41.06;21.06
66762;BME280;53672;48.176;16.338;2022-08-05T11:09:19;98803.00;;;42.37;20.32
66762;BME280;53672;48.176;16.338;2022-08-05T11:14:25;98802.59;;;43.46;19.29
66762;BME280;53672;48.176;16.338;2022-08-05T11:19:29;98802.19;;;42.68;20.41
66762;BME280;53672;48.176;16.338;2022-08-05T11:24:30;98805.63;;;42.41;20.13
66762;BME280;53672;48.176;16.338;2022-08-05T11:29:35;98798.78;;;42.22;19.73
66762;BME280;53672;48.176;16.338;2022-08-05T11:34:39;98799.47;;;41.85;20.62
66762;BME280;53672;48.176;16.338;2022-08-05T11:39:48;98801.41;;;43.16;19.08
66762;BME280;53672;48.176;16.338;2022-08-05T11:44:49;98796.38;;;42.88;19.74
66762;BME280;53672;48.176;16.338;2022-08-05T11:49:56;98797.91;;;43.43;19.00
66762;BME280;53672;48.176;16.338;2022-08-05T11:54:57;98793.38;;;43.90;19.10
66762;BME280;53672;48.176;16.338;2022-08-05T11:59:57;98800.75;;;43.43;19.47
66762;BME280;53672;48.176;16.338;2022-08-05T12:05:00;98795.69;;;41.02;20.96
66762;BME280;53672;48.176;16.338;2022-08-05T12:10:01;98785.97;;;40.68;21.69
66762;BME280;53672;48.176;16.338;2022-08-05T12:15:03;98792.97;;;40.09;21.65
66762;BME280;53672;48.176;16.338;2022-08-05T12:20:06;98790.25;;;40.98;20.91
66762;BME280;53672;48.176;16.338;2022-08-05T12:25:07;98793.31;;;41.61;20.89
66762;BME280;53672;48.176;16.338;2022-08-05T12:30:10;98795.44;;;41.72;20.33
66762;BME280;53672;48.176;16.338;2022-08-05T12:35:12;98786.66;;;41.64;20.66
66762;BME280;53672;48.176;16.338;2022-08-05T12:40:14;98790.41;;;42.07;20.52
66762;BME280;53672;48.176;16.338;2022-08-05T12:45:15;98782.00;;;42.18;19.31
66762;BME280;53672;48.176;16.338;2022-08-05T12:50:17;98778.38;;;42.18;16.68
66762;BME280;53672;48.176;16.338;2022-08-05T12:55:21;98783.94;;;42.38;16.61
66762;BME280;53672;48.176;16.338;2022-08-05T13:00:23;98781.78;;;42.22;16.22
66762;BME280;53672;48.176;16.338;2022-08-05T13:05:25;98784.09;;;41.92;16.55
66762;BME280;53672;48.176;16.338;2022-08-05T13:10:26;98778.56;;;42.09;18.06
66762;BME280;53672;48.176;16.338;2022-08-05T13:15:30;98778.16;;;41.90;17.14
66762;BME280;53672;48.176;16.338;2022-08-05T13:20:35;98763.63;;;41.51;17.19
66762;BME280;53672;48.176;16.338;2022-08-05T13:25:38;98770.88;;;42.15;17.57
66762;BME280;53672;48.176;16.338;2022-08-05T13:30:38;98747.69;;;41.54;16.99
66762;BME280;53672;48.176;16.338;2022-08-05T13:35:41;98760.94;;;41.42;18.28
66762;BME280;53672;48.176;16.338;2022-08-05T13:40:41;98755.16;;;41.11;19.42
66762;BME280;53672;48.176;16.338;2022-08-05T13:45:42;98744.41;;;40.74;19.33
66762;BME280;53672;48.176;16.338;2022-08-05T13:50:43;98735.22;;;40.59;19.39
66762;BME280;53672;48.176;16.338;2022-08-05T13:55:44;98732.06;;;40.37;19.52
66762;BME280;53672;48.176;16.338;2022-08-05T14:00:44;98725.78;;;40.13;20.36
66762;BME280;53672;48.176;16.338;2022-08-05T14:05:46;98717.59;;;40.15;20.52
66762;BME280;53672;48.176;16.338;2022-08-05T14:10:47;98719.00;;;39.61;21.35
66762;BME280;53672;48.176;16.338;2022-08-05T14:15:48;98703.63;;;39.47;21.04
66762;BME280;53672;48.176;16.338;2022-08-05T14:20:50;98702.25;;;39.28;21.03
66762;BME280;53672;48.176;16.338;2022-08-05T14:25:50;98698.38;;;39.01;21.17
66762;BME280;53672;48.176;16.338;2022-08-05T14:30:51;98692.28;;;38.79;21.75
66762;BME280;53672;48.176;16.338;2022-08-05T14:35:53;98697.28;;;38.61;21.56
66762;BME280;53672;48.176;16.338;2022-08-05T14:40:53;98694.72;;;38.48;22.07
66762;BME280;53672;48.176;16.338;2022-08-05T14:45:54;98692.84;;;38.12;22.53
66762;BME280;53672;48.176;16.338;2022-08-05T14:50:55;98699.19;;;37.89;22.99
66762;BME280;53672;48.176;16.338;2022-08-05T14:55:56;98687.75;;;37.50;23.34
66762;BME280;53672;48.176;16.338;2022-08-05T15:00:56;98690.72;;;37.38;24.25
66762;BME280;53672;48.176;16.338;2022-08-05T15:05:58;98699.97;;;37.20;24.32
66762;BME280;53672;48.176;16.338;2022-08-05T15:10:59;98703.75;;;37.08;24.71
66762;BME280;53672;48.176;16.338;2022-08-05T15:15:59;98702.31;;;36.94;24.35
66762;BME280;53672;48.176;16.338;2022-08-05T15:21:04;98708.25;;;36.78;24.76
66762;BME280;53672;48.176;16.338;2022-08-05T15:26:05;98700.88;;;36.63;25.09
66762;BME280;53672;48.176;16.338;2022-08-05T15:31:05;98691.03;;;36.58;25.59
66762;BME280;53672;48.176;16.338;2022-08-05T15:36:08;98694.13;;;36.42;25.34
66762;BME280;53672;48.176;16.338;2022-08-05T15:41:09;98694.56;;;36.31;25.97
66762;BME280;53672;48.176;16.338;2022-08-05T15:46:09;98683.31;;;36.13;25.82
66762;BME280;53672;48.176;16.338;2022-08-05T15:51:11;98685.22;;;35.94;25.87
66762;BME280;53672;48.176;16.338;2022-08-05T15:56:11;98688.22;;;35.69;26.35
66762;BME280;53672;48.176;16.338;2022-08-05T16:01:12;98687.75;;;35.62;26.51
66762;BME280;53672;48.176;16.338;2022-08-05T16:06:14;98684.66;;;35.47;27.12
66762;BME280;53672;48.176;16.338;2022-08-05T16:11:15;98686.31;;;35.35;27.62
66762;BME280;53672;48.176;16.338;2022-08-05T16:16:15;98694.19;;;35.28;28.04
66762;BME280;53672;48.176;16.338;2022-08-05T16:21:17;98694.78;;;35.23;27.81
66762;BME280;53672;48.176;16.338;2022-08-05T16:26:17;98688.53;;;35.19;28.42
66762;BME280;53672;48.176;16.338;2022-08-05T16:31:18;98698.41;;;35.10;28.22
66762;BME280;53672;48.176;16.338;2022-08-05T16:36:20;98699.56;;;35.00;28.93
66762;BME280;53672;48.176;16.338;2022-08-05T16:41:20;98703.22;;;34.88;28.88
66762;BME280;53672;48.176;16.338;2022-08-05T16:46:21;98700.72;;;34.69;30.80
66762;BME280;53672;48.176;16.338;2022-08-05T16:51:23;98700.84;;;34.65;29.86
66762;BME280;53672;48.176;16.338;2022-08-05T16:56:24;98692.97;;;34.60;29.50
66762;BME280;53672;48.176;16.338;2022-08-05T17:01:24;98695.69;;;34.51;29.06
66762;BME280;53672;48.176;16.338;2022-08-05T17:06:26;98694.03;;;34.41;29.49
66762;BME280;53672;48.176;16.338;2022-08-05T17:11:27;98689.59;;;34.31;29.58
66762;BME280;53672;48.176;16.338;2022-08-05T17:16:27;98685.56;;;34.19;30.31
66762;BME280;53672;48.176;16.338;2022-08-05T17:21:29;98684.66;;;34.09;30.38
66762;BME280;53672;48.176;16.338;2022-08-05T17:26:30;98688.13;;;34.01;30.23
66762;BME280;53672;48.176;16.338;2022-08-05T17:31:30;98688.13;;;33.88;30.49
66762;BME280;53672;48.176;16.338;2022-08-05T17:36:32;98688.13;;;33.76;31.44
66762;BME280;53672;48.176;16.338;2022-08-05T17:41:32;98700.63;;;33.58;31.83
66762;BME280;53672;48.176;16.338;2022-08-05T17:46:33;98707.31;;;33.48;32.00
66762;BME280;53672;48.176;16.338;2022-08-05T17:51:35;98714.44;;;33.37;32.30
66762;BME280;53672;48.176;16.338;2022-08-05T17:56:35;98721.56;;;33.25;32.89
66762;BME280;53672;48.176;16.338;2022-08-05T18:01:36;98718.38;;;33.10;32.56
66762;BME280;53672;48.176;16.338;2022-08-05T18:06:38;98732.28;;;32.98;33.36
66762;BME280;53672;48.176;16.338;2022-08-05T18:11:38;98731.88;;;32.83;33.80
66762;BME280;53672;48.176;16.338;2022-08-05T18:16:39;98729.69;;;32.75;34.09
66762;BME280;53672;48.176;16.338;2022-08-05T18:21:41;98733.22;;;32.62;34.99
66762;BME280;53672;48.176;16.338;2022-08-05T18:26:42;98745.50;;;32.49;35.92
66762;BME280;53672;48.176;16.338;2022-08-05T18:31:42;98742.72;;;32.33;37.25
66762;BME280;53672;48.176;16.338;2022-08-05T18:36:44;98743.47;;;32.17;38.14
66762;BME280;53672;48.176;16.338;2022-08-05T18:41:45;98742.97;;;32.02;38.84
66762;BME280;53672;48.176;16.338;2022-08-05T18:46:45;98750.97;;;31.84;39.40
66762;BME280;53672;48.176;16.338;2022-08-05T18:51:47;98747.22;;;31.75;40.31
66762;BME280;53672;48.176;16.338;2022-08-05T18:56:47;98746.78;;;31.56;41.50
66762;BME280;53672;48.176;16.338;2022-08-05T19:01:48;98763.44;;;31.40;42.09
66762;BME280;53672;48.176;16.338;2022-08-05T19:06:50;98766.06;;;31.28;42.04
66762;BME280;53672;48.176;16.338;2022-08-05T19:11:50;98773.53;;;31.11;42.62
66762;BME280;53672;48.176;16.338;2022-08-05T19:16:51;98773.81;;;30.93;43.38
66762;BME280;53672;48.176;16.338;2022-08-05T19:21:52;98776.84;;;30.79;43.83
66762;BME280;53672;48.176;16.338;2022-08-05T19:26:53;98778.78;;;30.59;44.21
66762;BME280;53672;48.176;16.338;2022-08-05T19:31:54;98781.09;;;30.41;45.47
66762;BME280;53672;48.176;16.338;2022-08-05T19:36:56;98785.56;;;30.31;45.74
66762;BME280;53672;48.176;16.338;2022-08-05T19:41:56;98781.75;;;30.22;45.47
66762;BME280;53672;48.176;16.338;2022-08-05T19:46:57;98784.78;;;30.04;46.21
66762;BME280;53672;48.176;16.338;2022-08-05T19:51:59;98785.31;;;29.95;46.83
66762;BME280;53672;48.176;16.338;2022-08-05T19:57:00;98782.69;;;29.81;47.47
66762;BME280;53672;48.176;16.338;2022-08-05T20:02:01;98780.00;;;29.74;46.79
66762;BME280;53672;48.176;16.338;2022-08-05T20:07:02;98780.94;;;29.64;48.24
66762;BME280;53672;48.176;16.338;2022-08-05T20:12:03;98787.44;;;29.50;48.72
66762;BME280;53672;48.176;16.338;2022-08-05T20:17:04;98788.41;;;29.37;48.47
66762;BME280;53672;48.176;16.338;2022-08-05T20:22:06;98779.44;;;29.18;48.64
66762;BME280;53672;48.176;16.338;2022-08-05T20:27:06;98788.75;;;29.01;49.51
66762;BME280;53672;48.176;16.338;2022-08-05T20:32:07;98789.28;;;28.86;49.68
66762;BME280;53672;48.176;16.338;2022-08-05T20:37:08;98796.16;;;28.70;50.21
66762;BME280;53672;48.176;16.338;2022-08-05T20:42:09;98789.91;;;28.59;50.66
66762;BME280;53672;48.176;16.338;2022-08-05T20:47:09;98792.38;;;28.43;51.06
66762;BME280;53672;48.176;16.338;2022-08-05T20:52:11;98796.81;;;28.34;51.46
66762;BME280;53672;48.176;16.338;2022-08-05T20:57:12;98794.56;;;28.18;51.67
66762;BME280;53672;48.176;16.338;2022-08-05T21:02:12;98793.03;;;28.06;51.71
66762;BME280;53672;48.176;16.338;2022-08-05T21:07:14;98793.84;;;28.00;51.20
66762;BME280;53672;48.176;16.338;2022-08-05T21:12:15;98789.16;;;27.86;51.22
66762;BME280;53672;48.176;16.338;2022-08-05T21:17:15;98789.59;;;27.78;51.05
66762;BME280;53672;48.176;16.338;2022-08-05T21:22:18;98784.88;;;27.67;50.21
66762;BME280;53672;48.176;16.338;2022-08-05T21:27:19;98788.88;;;27.63;50.01
66762;BME280;53672;48.176;16.338;2022-08-05T21:32:20;98789.72;;;27.53;50.12
66762;BME280;53672;48.176;16.338;2022-08-05T21:37:22;98803.16;;;27.51;49.80
66762;BME280;53672;48.176;16.338;2022-08-05T21:42:23;98800.81;;;27.49;49.78
66762;BME280;53672;48.176;16.338;2022-08-05T21:47:24;98814.66;;;27.46;49.75
66762;BME280;53672;48.176;16.338;2022-08-05T21:52:26;98820.56;;;27.41;49.82
66762;BME280;53672;48.176;16.338;2022-08-05T21:57:26;98824.53;;;27.40;49.59
66762;BME280;53672;48.176;16.338;2022-08-05T22:02:27;98838.78;;;27.35;49.62
66762;BME280;53672;48.176;16.338;2022-08-05T22:07:29;98831.66;;;27.30;49.63
66762;BME280;53672;48.176;16.338;2022-08-05T22:12:29;98828.91;;;27.27;49.86
66762;BME280;53672;48.176;16.338;2022-08-05T22:17:30;98837.63;;;27.21;49.93
66762;BME280;53672;48.176;16.338;2022-08-05T22:22:32;98832.47;;;27.20;49.74
66762;BME280;53672;48.176;16.338;2022-08-05T22:27:32;98825.38;;;27.19;49.69
66762;BME280;53672;48.176;16.338;2022-08-05T22:32:33;98832.88;;;27.15;49.53
66762;BME280;53672;48.176;16.338;2022-08-05T22:37:34;98853.44;;;27.14;50.26
66762;BME280;53672;48.176;16.338;2022-08-05T22:42:35;98862.13;;;27.12;49.82
66762;BME280;53672;48.176;16.338;2022-08-05T22:47:35;98860.94;;;27.13;49.74
66762;BME280;53672;48.176;16.338;2022-08-05T22:52:37;98874.00;;;27.13;49.95
66762;BME280;53672;48.176;16.338;2022-08-05T22:57:38;98880.72;;;27.12;50.45
66762;BME280;53672;48.176;16.338;2022-08-05T23:02:38;98889.03;;;27.08;51.12
66762;BME280;53672;48.176;16.338;2022-08-05T23:07:40;98893.38;;;27.06;51.66
66762;BME280;53672;48.176;16.338;2022-08-05T23:12:41;98898.13;;;27.02;52.18
66762;BME280;53672;48.176;16.338;2022-08-05T23:17:41;98902.88;;;26.98;52.82
66762;BME280;53672;48.176;16.338;2022-08-05T23:22:43;98904.47;;;26.95;54.56
66762;BME280;53672;48.176;16.338;2022-08-05T23:27:44;98905.63;;;26.87;55.04
66762;BME280;53672;48.176;16.338;2022-08-05T23:32:44;98897.72;;;26.86;55.15
66762;BME280;53672;48.176;16.338;2022-08-05T23:37:46;98885.47;;;26.87;55.07
66762;BME280;53672;48.176;16.338;2022-08-05T23:42:47;98887.44;;;26.90;55.47
66762;BME280;53672;48.176;16.338;2022-08-05T23:47:47;98878.34;;;26.89;55.63
66762;BME280;53672;48.176;16.338;2022-08-05T23:52:49;98873.22;;;26.84;55.71
66762;BME280;53672;48.176;16.338;2022-08-05T23:57:49;98856.22;;;26.82;55.68
